TAF KOMA
KOMA 280520Z 2806/2906 34007KT P6SM BKN200 FM280900 VRB04KT P6SM FEW250 FM281600 19005KT P6SM FEW090 BKN200=
METAR KOMA
WC KOMA
WS KOMA
WV KOMA